sensor_id;sensor_type;location;lat;lon;timestamp;pressure;altitude;pressure_sealevel;temperature;humidity
70072;BME280;57434;42.794;23.302;2023-02-20T00:00:21;95929.91;;;7.92;62.61
70072;BME280;57434;42.794;23.302;2023-02-20T00:01:24;95946.47;;;8.04;62.44
70072;BME280;57434;42.794;23.302;2023-02-20T00:02:26;95929.44;;;8.02;62.32
70072;BME280;57434;42.794;23.302;2023-02-20T00:03:28;95939.78;;;8.11;62.32
70072;BME280;57434;42.794;23.302;2023-02-20T00:04:30;95922.41;;;8.07;62.06
70072;BME280;57434;42.794;23.302;2023-02-20T00:05:33;95932.19;;;8.21;62.20
70072;BME280;57434;42.794;23.302;2023-02-20T00:06:34;95899.50;;;7.85;62.38
70072;BME280;57434;42.794;23.302;2023-02-20T00:07:36;95929.28;;;7.97;62.42
70072;BME280;57434;42.794;23.302;2023-02-20T00:08:38;95920.91;;;7.88;62.51
70072;BME280;57434;42.794;23.302;2023-02-20T00:09:39;95806.03;;;7.07;62.57
70072;BME280;57434;42.794;23.302;2023-02-20T00:10:41;95943.25;;;7.97;62.78
70072;BME280;57434;42.794;23.302;2023-02-20T00:11:43;95793.97;;;6.92;62.94
70072;BME280;57434;42.794;23.302;2023-02-20T00:12:45;95873.66;;;7.38;63.33
70072;BME280;57434;42.794;23.302;2023-02-20T00:13:48;95948.22;;;7.83;63.57
70072;BME280;57434;42.794;23.302;2023-02-20T00:14:50;95881.41;;;7.43;63.14
70072;BME280;57434;42.794;23.302;2023-02-20T00:15:52;95952.59;;;7.66;63.64
70072;BME280;57434;42.794;23.302;2023-02-20T00:16:55;95970.59;;;7.65;63.96
70072;BME280;57434;42.794;23.302;2023-02-20T00:17:56;95817.66;;;6.78;63.99
70072;BME280;57434;42.794;23.302;2023-02-20T00:18:58;95917.06;;;7.48;64.02
70072;BME280;57434;42.794;23.302;2023-02-20T00:20:01;95914.75;;;7.47;64.38
70072;BME280;57434;42.794;23.302;2023-02-20T00:21:04;95942.81;;;7.62;64.26
70072;BME280;57434;42.794;23.302;2023-02-20T00:22:06;95955.53;;;7.63;64.32
70072;BME280;57434;42.794;23.302;2023-02-20T00:23:09;95853.63;;;7.12;63.70
70072;BME280;57434;42.794;23.302;2023-02-20T00:24:11;95888.22;;;7.42;63.79
70072;BME280;57434;42.794;23.302;2023-02-20T00:25:15;95937.84;;;7.66;64.01
70072;BME280;57434;42.794;23.302;2023-02-20T00:26:17;95913.78;;;7.50;63.66
70072;BME280;57434;42.794;23.302;2023-02-20T00:27:19;95918.94;;;7.33;64.13
70072;BME280;57434;42.794;23.302;2023-02-20T00:28:21;95946.38;;;7.62;64.08
70072;BME280;57434;42.794;23.302;2023-02-20T00:29:23;95948.09;;;7.60;64.38
70072;BME280;57434;42.794;23.302;2023-02-20T00:30:25;95932.56;;;7.59;63.97
70072;BME280;57434;42.794;23.302;2023-02-20T00:31:27;95903.69;;;7.25;64.53
70072;BME280;57434;42.794;23.302;2023-02-20T00:32:29;95948.41;;;7.71;64.14
70072;BME280;57434;42.794;23.302;2023-02-20T00:33:31;95919.22;;;7.54;63.81
70072;BME280;57434;42.794;23.302;2023-02-20T00:34:33;95920.94;;;7.60;63.95
70072;BME280;57434;42.794;23.302;2023-02-20T00:35:35;95936.00;;;7.63;64.10
70072;BME280;57434;42.794;23.302;2023-02-20T00:36:37;95951.81;;;7.75;64.10
70072;BME280;57434;42.794;23.302;2023-02-20T00:37:38;95910.72;;;7.39;64.25
70072;BME280;57434;42.794;23.302;2023-02-20T00:38:42;95874.41;;;7.11;64.21
70072;BME280;57434;42.794;23.302;2023-02-20T00:39:44;95939.09;;;7.46;64.68
70072;BME280;57434;42.794;23.302;2023-02-20T00:40:46;95922.13;;;7.23;65.02
70072;BME280;57434;42.794;23.302;2023-02-20T00:41:48;95946.53;;;7.40;65.01
70072;BME280;57434;42.794;23.302;2023-02-20T00:42:50;95943.44;;;7.47;65.02
70072;BME280;57434;42.794;23.302;2023-02-20T00:43:52;95941.25;;;7.33;65.07
70072;BME280;57434;42.794;23.302;2023-02-20T00:44:54;95947.41;;;7.28;65.19
70072;BME280;57434;42.794;23.302;2023-02-20T00:45:56;95931.56;;;6.98;65.46
70072;BME280;57434;42.794;23.302;2023-02-20T00:46:58;95890.41;;;6.53;66.07
70072;BME280;57434;42.794;23.302;2023-02-20T00:47:59;95967.53;;;7.05;66.12
70072;BME280;57434;42.794;23.302;2023-02-20T00:49:02;95760.78;;;5.81;65.86
70072;BME280;57434;42.794;23.302;2023-02-20T00:50:05;95978.13;;;7.19;65.93
70072;BME280;57434;42.794;23.302;2023-02-20T00:51:08;95926.63;;;6.93;65.67
70072;BME280;57434;42.794;23.302;2023-02-20T00:52:10;95966.47;;;7.21;65.63
70072;BME280;57434;42.794;23.302;2023-02-20T00:53:14;95979.22;;;7.31;65.57
70072;BME280;57434;42.794;23.302;2023-02-20T00:54:16;95979.81;;;7.26;65.65
70072;BME280;57434;42.794;23.302;2023-02-20T00:55:18;95972.22;;;7.26;65.35
70072;BME280;57434;42.794;23.302;2023-02-20T00:56:20;95979.19;;;7.22;65.29
70072;BME280;57434;42.794;23.302;2023-02-20T00:57:21;95824.03;;;6.20;65.38
70072;BME280;57434;42.794;23.302;2023-02-20T00:58:23;95978.72;;;7.23;65.43
70072;BME280;57434;42.794;23.302;2023-02-20T00:59:25;95891.31;;;6.50;65.38
70072;BME280;57434;42.794;23.302;2023-02-20T01:00:28;95950.94;;;7.01;65.18
70072;BME280;57434;42.794;23.302;2023-02-20T01:01:31;95688.84;;;4.99;65.55
70072;BME280;57434;42.794;23.302;2023-02-20T01:02:33;95960.97;;;6.80;65.81
70072;BME280;57434;42.794;23.302;2023-02-20T01:03:35;95986.41;;;6.92;66.03
70072;BME280;57434;42.794;23.302;2023-02-20T01:04:37;95977.50;;;6.75;65.86
70072;BME280;57434;42.794;23.302;2023-02-20T01:05:39;95948.34;;;6.67;66.15
70072;BME280;57434;42.794;23.302;2023-02-20T01:06:41;95961.41;;;6.79;66.21
70072;BME280;57434;42.794;23.302;2023-02-20T01:07:43;95967.00;;;6.79;65.95
70072;BME280;57434;42.794;23.302;2023-02-20T01:08:44;95954.44;;;6.74;66.34
70072;BME280;57434;42.794;23.302;2023-02-20T01:09:46;96001.44;;;6.94;66.40
70072;BME280;57434;42.794;23.302;2023-02-20T01:10:49;95981.69;;;6.70;67.17
70072;BME280;57434;42.794;23.302;2023-02-20T01:11:51;95984.50;;;6.79;67.45
70072;BME280;57434;42.794;23.302;2023-02-20T01:12:53;95986.38;;;6.82;67.60
70072;BME280;57434;42.794;23.302;2023-02-20T01:13:55;95955.47;;;6.59;67.89
70072;BME280;57434;42.794;23.302;2023-02-20T01:14:57;95898.53;;;6.29;67.71
70072;BME280;57434;42.794;23.302;2023-02-20T01:15:58;95971.34;;;6.80;67.36
70072;BME280;57434;42.794;23.302;2023-02-20T01:17:00;96013.69;;;6.88;67.69
70072;BME280;57434;42.794;23.302;2023-02-20T01:18:02;95995.25;;;6.90;67.37
70072;BME280;57434;42.794;23.302;2023-02-20T01:19:04;95988.72;;;6.93;67.15
70072;BME280;57434;42.794;23.302;2023-02-20T01:20:07;95998.97;;;6.96;67.10
70072;BME280;57434;42.794;23.302;2023-02-20T01:21:10;95839.16;;;5.70;67.67
70072;BME280;57434;42.794;23.302;2023-02-20T01:22:12;96009.94;;;6.81;67.70
70072;BME280;57434;42.794;23.302;2023-02-20T01:23:14;96012.13;;;6.87;67.68
70072;BME280;57434;42.794;23.302;2023-02-20T01:24:17;95886.38;;;6.13;67.60
70072;BME280;57434;42.794;23.302;2023-02-20T01:25:19;95989.50;;;6.85;67.19
70072;BME280;57434;42.794;23.302;2023-02-20T01:26:21;96011.25;;;7.08;67.19
70072;BME280;57434;42.794;23.302;2023-02-20T01:27:22;96019.81;;;7.13;66.95
70072;BME280;57434;42.794;23.302;2023-02-20T01:28:24;95908.00;;;6.31;66.83
70072;BME280;57434;42.794;23.302;2023-02-20T01:29:26;95957.94;;;6.26;66.99
70072;BME280;57434;42.794;23.302;2023-02-20T01:30:28;96023.94;;;7.00;67.16
70072;BME280;57434;42.794;23.302;2023-02-20T01:31:30;96011.41;;;7.04;67.20
70072;BME280;57434;42.794;23.302;2023-02-20T01:32:32;96014.78;;;6.99;67.29
70072;BME280;57434;42.794;23.302;2023-02-20T01:33:34;96008.16;;;7.06;67.25
70072;BME280;57434;42.794;23.302;2023-02-20T01:34:36;95984.31;;;6.65;67.15
70072;BME280;57434;42.794;23.302;2023-02-20T01:35:38;95959.25;;;6.43;67.36
70072;BME280;57434;42.794;23.302;2023-02-20T01:36:52;96016.34;;;7.00;67.56
70072;BME280;57434;42.794;23.302;2023-02-20T01:37:54;96012.00;;;6.99;67.66
70072;BME280;57434;42.794;23.302;2023-02-20T01:38:56;95979.66;;;6.62;67.79
70072;BME280;57434;42.794;23.302;2023-02-20T01:39:58;96014.78;;;6.99;67.55
70072;BME280;57434;42.794;23.302;2023-02-20T01:41:00;95889.84;;;6.27;67.64
70072;BME280;57434;42.794;23.302;2023-02-20T01:42:06;95988.44;;;6.91;67.62
70072;BME280;57434;42.794;23.302;2023-02-20T01:43:10;96008.31;;;7.21;67.77
70072;BME280;57434;42.794;23.302;2023-02-20T01:44:23;95999.94;;;7.21;67.60
70072;BME280;57434;42.794;23.302;2023-02-20T01:46:40;95892.44;;;6.61;67.45
70072;BME280;57434;42.794;23.302;2023-02-20T01:47:43;96034.63;;;7.51;67.87
70072;BME280;57434;42.794;23.302;2023-02-20T01:48:44;96000.53;;;7.65;67.66
70072;BME280;57434;42.794;23.302;2023-02-20T01:50:58;95943.75;;;7.40;67.05
70072;BME280;57434;42.794;23.302;2023-02-20T01:52:23;96001.28;;;7.83;67.22
70072;BME280;57434;42.794;23.302;2023-02-20T01:53:27;95975.06;;;7.81;67.02
70072;BME280;57434;42.794;23.302;2023-02-20T01:54:31;95963.47;;;7.73;66.86
70072;BME280;57434;42.794;23.302;2023-02-20T01:55:46;95933.22;;;7.44;66.60
70072;BME280;57434;42.794;23.302;2023-02-20T01:56:51;95988.41;;;7.95;66.82
70072;BME280;57434;42.794;23.302;2023-02-20T01:58:16;95971.03;;;7.82;67.08
70072;BME280;57434;42.794;23.302;2023-02-20T01:59:20;95971.19;;;7.88;66.78
70072;BME280;57434;42.794;23.302;2023-02-20T02:00:23;95993.03;;;8.07;66.24
70072;BME280;57434;42.794;23.302;2023-02-20T02:01:26;95924.19;;;7.59;65.68
70072;BME280;57434;42.794;23.302;2023-02-20T02:02:30;95990.25;;;8.07;64.48
70072;BME280;57434;42.794;23.302;2023-02-20T02:03:36;95948.38;;;7.80;63.90
70072;BME280;57434;42.794;23.302;2023-02-20T02:05:17;96006.72;;;8.14;63.69
70072;BME280;57434;42.794;23.302;2023-02-20T02:06:19;95990.72;;;8.06;63.63
70072;BME280;57434;42.794;23.302;2023-02-20T02:07:21;95983.13;;;7.88;63.52
70072;BME280;57434;42.794;23.302;2023-02-20T02:08:24;95940.19;;;7.67;63.01
70072;BME280;57434;42.794;23.302;2023-02-20T02:09:42;95996.31;;;8.06;63.08
70072;BME280;57434;42.794;23.302;2023-02-20T02:11:12;95988.84;;;8.03;62.66
70072;BME280;57434;42.794;23.302;2023-02-20T02:12:16;95993.97;;;8.04;62.71
70072;BME280;57434;42.794;23.302;2023-02-20T02:13:18;95998.31;;;8.05;62.57
70072;BME280;57434;42.794;23.302;2023-02-20T02:14:20;96035.28;;;8.09;62.58
70072;BME280;57434;42.794;23.302;2023-02-20T02:15:23;95900.75;;;7.29;62.80
70072;BME280;57434;42.794;23.302;2023-02-20T02:16:28;96028.75;;;8.03;62.54
70072;BME280;57434;42.794;23.302;2023-02-20T02:25:55;96026.88;;;7.55;66.07
70072;BME280;57434;42.794;23.302;2023-02-20T02:28:38;96019.06;;;7.31;67.87
70072;BME280;57434;42.794;23.302;2023-02-20T02:30:16;96052.69;;;7.19;68.44
70072;BME280;57434;42.794;23.302;2023-02-20T02:35:28;96035.41;;;7.02;69.87
70072;BME280;57434;42.794;23.302;2023-02-20T02:38:19;96023.91;;;6.91;70.14
70072;BME280;57434;42.794;23.302;2023-02-20T02:42:33;96041.19;;;6.76;70.58
70072;BME280;57434;42.794;23.302;2023-02-20T02:43:47;95967.34;;;6.19;70.96
70072;BME280;57434;42.794;23.302;2023-02-20T02:45:02;96040.22;;;6.61;71.42
70072;BME280;57434;42.794;23.302;2023-02-20T02:46:36;96055.25;;;6.64;71.50
70072;BME280;57434;42.794;23.302;2023-02-20T02:47:48;96049.03;;;6.60;71.73
70072;BME280;57434;42.794;23.302;2023-02-20T02:49:05;96040.28;;;6.48;72.32
70072;BME280;57434;42.794;23.302;2023-02-20T02:50:14;96051.31;;;6.52;72.58
70072;BME280;57434;42.794;23.302;2023-02-20T02:51:23;96024.69;;;6.29;72.91
70072;BME280;57434;42.794;23.302;2023-02-20T02:52:28;96047.72;;;6.52;73.16
70072;BME280;57434;42.794;23.302;2023-02-20T02:53:31;95978.41;;;6.01;73.60
70072;BME280;57434;42.794;23.302;2023-02-20T02:54:34;96044.88;;;6.42;73.56
70072;BME280;57434;42.794;23.302;2023-02-20T02:55:37;96050.00;;;6.44;73.79
70072;BME280;57434;42.794;23.302;2023-02-20T02:56:41;96059.59;;;6.43;74.04
70072;BME280;57434;42.794;23.302;2023-02-20T02:57:43;96030.59;;;6.31;74.41
70072;BME280;57434;42.794;23.302;2023-02-20T02:58:49;96047.34;;;6.40;74.83
70072;BME280;57434;42.794;23.302;2023-02-20T03:01:03;96041.28;;;6.33;75.07
70072;BME280;57434;42.794;23.302;2023-02-20T03:02:10;96060.38;;;6.43;75.22
70072;BME280;57434;42.794;23.302;2023-02-20T03:03:22;96064.06;;;6.40;75.17
70072;BME280;57434;42.794;23.302;2023-02-20T03:04:26;95953.31;;;5.57;75.03
70072;BME280;57434;42.794;23.302;2023-02-20T03:05:34;96063.28;;;6.40;75.14
70072;BME280;57434;42.794;23.302;2023-02-20T03:06:43;96048.88;;;6.32;75.25
70072;BME280;57434;42.794;23.302;2023-02-20T03:07:51;96049.56;;;6.24;75.36
70072;BME280;57434;42.794;23.302;2023-02-20T03:09:00;96046.00;;;6.23;75.20
70072;BME280;57434;42.794;23.302;2023-02-20T03:10:06;96046.47;;;6.22;75.16
70072;BME280;57434;42.794;23.302;2023-02-20T03:11:15;95971.53;;;5.71;74.98
70072;BME280;57434;42.794;23.302;2023-02-20T03:12:19;96033.41;;;6.09;75.03
70072;BME280;57434;42.794;23.302;2023-02-20T03:13:24;96051.50;;;6.14;75.07
70072;BME280;57434;42.794;23.302;2023-02-20T03:14:33;95764.00;;;4.04;74.69
70072;BME280;57434;42.794;23.302;2023-02-20T03:15:40;96059.69;;;6.30;74.88
70072;BME280;57434;42.794;23.302;2023-02-20T03:16:54;96062.06;;;6.19;75.02
70072;BME280;57434;42.794;23.302;2023-02-20T03:19:13;96063.31;;;6.18;74.82
70072;BME280;57434;42.794;23.302;2023-02-20T03:20:18;96064.75;;;6.23;74.63
70072;BME280;57434;42.794;23.302;2023-02-20T03:21:22;96065.44;;;6.14;74.70
70072;BME280;57434;42.794;23.302;2023-02-20T03:22:42;96087.34;;;6.25;74.86
70072;BME280;57434;42.794;23.302;2023-02-20T03:23:54;96069.16;;;6.11;74.55
70072;BME280;57434;42.794;23.302;2023-02-20T03:25:24;96091.50;;;6.20;74.65
70072;BME280;57434;42.794;23.302;2023-02-20T03:26:32;95957.00;;;5.32;74.60
70072;BME280;57434;42.794;23.302;2023-02-20T03:29:03;96086.25;;;6.22;74.57
70072;BME280;57434;42.794;23.302;2023-02-20T03:30:11;96086.63;;;6.11;74.78
70072;BME280;57434;42.794;23.302;2023-02-20T03:31:27;96081.03;;;6.11;74.70
70072;BME280;57434;42.794;23.302;2023-02-20T03:32:33;96081.38;;;6.13;74.61
70072;BME280;57434;42.794;23.302;2023-02-20T03:33:46;96092.94;;;6.25;74.63
70072;BME280;57434;42.794;23.302;2023-02-20T03:34:51;96086.38;;;6.19;74.75
70072;BME280;57434;42.794;23.302;2023-02-20T03:35:54;96095.47;;;6.10;74.74
70072;BME280;57434;42.794;23.302;2023-02-20T03:37:05;96099.06;;;6.20;74.84
70072;BME280;57434;42.794;23.302;2023-02-20T03:38:12;96095.84;;;6.21;74.91
70072;BME280;57434;42.794;23.302;2023-02-20T03:39:22;96100.84;;;6.26;74.92
70072;BME280;57434;42.794;23.302;2023-02-20T03:40:26;96093.06;;;6.21;74.89
70072;BME280;57434;42.794;23.302;2023-02-20T03:41:30;96069.13;;;5.89;74.93
70072;BME280;57434;42.794;23.302;2023-02-20T03:42:37;96038.66;;;5.73;74.69
70072;BME280;57434;42.794;23.302;2023-02-20T03:43:43;96090.91;;;6.03;74.78
70072;BME280;57434;42.794;23.302;2023-02-20T03:44:46;96093.38;;;6.01;75.12
70072;BME280;57434;42.794;23.302;2023-02-20T03:45:49;96090.50;;;5.92;75.04
70072;BME280;57434;42.794;23.302;2023-02-20T03:46:52;96098.94;;;6.01;74.96
70072;BME280;57434;42.794;23.302;2023-02-20T03:47:59;96104.25;;;6.08;74.87
70072;BME280;57434;42.794;23.302;2023-02-20T03:49:11;96077.13;;;5.87;74.75
70072;BME280;57434;42.794;23.302;2023-02-20T03:50:14;96085.38;;;5.91;75.05
70072;BME280;57434;42.794;23.302;2023-02-20T03:51:16;96101.09;;;5.85;75.23
70072;BME280;57434;42.794;23.302;2023-02-20T03:52:19;96016.84;;;5.37;74.94
70072;BME280;57434;42.794;23.302;2023-02-20T03:53:21;96100.53;;;5.90;75.16
70072;BME280;57434;42.794;23.302;2023-02-20T03:54:25;96093.53;;;5.85;75.27
70072;BME280;57434;42.794;23.302;2023-02-20T03:55:28;96085.78;;;5.67;75.38
70072;BME280;57434;42.794;23.302;2023-02-20T03:56:47;96005.09;;;5.20;75.38
70072;BME280;57434;42.794;23.302;2023-02-20T03:57:54;96093.13;;;5.74;75.52
70072;BME280;57434;42.794;23.302;2023-02-20T03:59:03;96104.34;;;5.83;75.47
70072;BME280;57434;42.794;23.302;2023-02-20T04:00:12;96089.34;;;5.68;75.36
70072;BME280;57434;42.794;23.302;2023-02-20T04:01:18;96115.28;;;5.77;75.37
70072;BME280;57434;42.794;23.302;2023-02-20T04:02:29;96111.72;;;5.77;75.52
70072;BME280;57434;42.794;23.302;2023-02-20T04:03:35;96096.94;;;5.67;75.67
70072;BME280;57434;42.794;23.302;2023-02-20T04:04:47;96092.28;;;5.52;75.61
70072;BME280;57434;42.794;23.302;2023-02-20T04:05:52;96112.06;;;5.79;75.63
70072;BME280;57434;42.794;23.302;2023-02-20T04:06:56;96112.72;;;5.83;75.59
70072;BME280;57434;42.794;23.302;2023-02-20T04:08:11;96133.63;;;5.88;75.49
70072;BME280;57434;42.794;23.302;2023-02-20T04:09:20;96015.22;;;5.27;75.50
70072;BME280;57434;42.794;23.302;2023-02-20T04:10:26;96108.56;;;5.88;75.67
70072;BME280;57434;42.794;23.302;2023-02-20T04:11:35;96096.78;;;5.84;75.68
70072;BME280;57434;42.794;23.302;2023-02-20T04:12:41;96107.66;;;5.91;75.55
70072;BME280;57434;42.794;23.302;2023-02-20T04:13:46;96112.00;;;5.92;75.56
70072;BME280;57434;42.794;23.302;2023-02-20T04:14:50;96076.75;;;5.76;75.41
70072;BME280;57434;42.794;23.302;2023-02-20T04:15:54;96107.59;;;5.82;75.37
70072;BME280;57434;42.794;23.302;2023-02-20T04:17:02;96097.28;;;5.91;75.55
70072;BME280;57434;42.794;23.302;2023-02-20T04:18:08;96034.88;;;5.45;75.59
70072;BME280;57434;42.794;23.302;2023-02-20T04:19:11;96041.22;;;5.45;75.92
70072;BME280;57434;42.794;23.302;2023-02-20T04:20:13;96094.44;;;5.82;75.95
70072;BME280;57434;42.794;23.302;2023-02-20T04:21:22;96100.53;;;5.90;76.07
70072;BME280;57434;42.794;23.302;2023-02-20T04:22:29;96077.88;;;5.66;75.85
70072;BME280;57434;42.794;23.302;2023-02-20T04:23:36;96097.22;;;5.82;75.82
70072;BME280;57434;42.794;23.302;2023-02-20T04:26:03;96109.00;;;5.86;75.67
70072;BME280;57434;42.794;23.302;2023-02-20T04:27:07;96133.72;;;5.84;75.65
70072;BME280;57434;42.794;23.302;2023-02-20T04:28:10;96115.00;;;5.85;75.60
70072;BME280;57434;42.794;23.302;2023-02-20T04:29:13;96113.59;;;5.80;75.65
70072;BME280;57434;42.794;23.302;2023-02-20T04:30:15;96120.06;;;5.77;75.55
70072;BME280;57434;42.794;23.302;2023-02-20T04:31:18;96112.72;;;5.70;75.56
70072;BME280;57434;42.794;23.302;2023-02-20T04:32:21;96105.94;;;5.59;75.51
70072;BME280;57434;42.794;23.302;2023-02-20T04:33:23;96111.16;;;5.69;75.37
70072;BME280;57434;42.794;23.302;2023-02-20T04:34:25;96038.81;;;5.22;75.54
70072;BME280;57434;42.794;23.302;2023-02-20T04:35:27;96115.84;;;5.72;75.62
70072;BME280;57434;42.794;23.302;2023-02-20T04:36:29;96101.53;;;5.36;75.67
70072;BME280;57434;42.794;23.302;2023-02-20T04:37:31;96108.84;;;5.68;75.83
70072;BME280;57434;42.794;23.302;2023-02-20T04:38:33;96127.75;;;5.73;75.63
70072;BME280;57434;42.794;23.302;2023-02-20T04:39:35;96077.78;;;5.57;75.73
70072;BME280;57434;42.794;23.302;2023-02-20T04:40:37;96110.81;;;5.80;75.53
70072;BME280;57434;42.794;23.302;2023-02-20T04:41:39;96113.59;;;5.80;75.67
70072;BME280;57434;42.794;23.302;2023-02-20T04:42:41;96113.06;;;5.72;75.71
70072;BME280;57434;42.794;23.302;2023-02-20T04:43:43;96136.00;;;5.76;75.80
70072;BME280;57434;42.794;23.302;2023-02-20T04:44:45;96011.34;;;5.11;75.55
70072;BME280;57434;42.794;23.302;2023-02-20T04:45:46;96108.28;;;5.73;75.79
70072;BME280;57434;42.794;23.302;2023-02-20T04:46:48;96098.03;;;5.70;75.80
70072;BME280;57434;42.794;23.302;2023-02-20T04:47:50;96057.47;;;5.34;75.63
70072;BME280;57434;42.794;23.302;2023-02-20T04:48:52;96101.38;;;5.65;75.73
70072;BME280;57434;42.794;23.302;2023-02-20T04:49:54;96104.16;;;5.77;75.51
70072;BME280;57434;42.794;23.302;2023-02-20T04:50:56;96100.03;;;5.69;75.56
70072;BME280;57434;42.794;23.302;2023-02-20T04:51:58;96107.28;;;5.67;75.63
70072;BME280;57434;42.794;23.302;2023-02-20T04:53:01;96100.28;;;5.62;75.41
70072;BME280;57434;42.794;23.302;2023-02-20T04:54:03;96083.94;;;5.52;75.54
70072;BME280;57434;42.794;23.302;2023-02-20T04:55:05;95877.00;;;3.66;75.45
70072;BME280;57434;42.794;23.302;2023-02-20T04:56:06;96073.59;;;5.39;75.21
70072;BME280;57434;42.794;23.302;2023-02-20T04:57:08;96109.94;;;5.70;75.19
70072;BME280;57434;42.794;23.302;2023-02-20T04:58:10;96103.31;;;5.55;75.28
70072;BME280;57434;42.794;23.302;2023-02-20T04:59:12;95965.47;;;4.69;75.23
70072;BME280;57434;42.794;23.302;2023-02-20T05:00:16;96111.41;;;5.62;75.36
70072;BME280;57434;42.794;23.302;2023-02-20T05:01:19;96106.88;;;5.56;75.43
70072;BME280;57434;42.794;23.302;2023-02-20T05:02:21;96119.69;;;5.53;75.42
70072;BME280;57434;42.794;23.302;2023-02-20T05:03:23;96120.69;;;5.47;75.57
70072;BME280;57434;42.794;23.302;2023-02-20T05:04:25;96121.25;;;5.41;75.25
70072;BME280;57434;42.794;23.302;2023-02-20T05:05:28;96074.19;;;5.22;74.94
70072;BME280;57434;42.794;23.302;2023-02-20T05:06:30;96097.09;;;5.38;74.65
70072;BME280;57434;42.794;23.302;2023-02-20T05:07:32;96102.31;;;5.49;74.47
70072;BME280;57434;42.794;23.302;2023-02-20T05:08:35;96116.13;;;5.53;74.18
70072;BME280;57434;42.794;23.302;2023-02-20T05:09:37;96124.09;;;5.63;73.86
70072;BME280;57434;42.794;23.302;2023-02-20T05:10:39;96100.31;;;5.50;73.68
70072;BME280;57434;42.794;23.302;2023-02-20T05:11:41;96097.19;;;5.48;73.28
70072;BME280;57434;42.794;23.302;2023-02-20T05:12:43;96136.13;;;5.60;73.16
70072;BME280;57434;42.794;23.302;2023-02-20T05:13:45;96039.81;;;5.03;72.86
70072;BME280;57434;42.794;23.302;2023-02-20T05:14:47;96137.16;;;5.54;72.55
70072;BME280;57434;42.794;23.302;2023-02-20T05:15:48;96112.66;;;5.49;72.54
70072;BME280;57434;42.794;23.302;2023-02-20T05:16:50;96136.91;;;5.61;72.28
70072;BME280;57434;42.794;23.302;2023-02-20T05:17:52;96022.69;;;4.79;71.86
70072;BME280;57434;42.794;23.302;2023-02-20T05:18:54;96114.44;;;5.42;72.07
70072;BME280;57434;42.794;23.302;2023-02-20T05:19:56;96127.88;;;5.57;71.89
70072;BME280;57434;42.794;23.302;2023-02-20T05:20:58;96130.94;;;5.50;71.59
70072;BME280;57434;42.794;23.302;2023-02-20T05:22:00;96082.66;;;5.18;71.09
70072;BME280;57434;42.794;23.302;2023-02-20T05:23:02;96083.66;;;5.11;71.14
70072;BME280;57434;42.794;23.302;2023-02-20T05:24:05;96145.50;;;5.54;70.83
70072;BME280;57434;42.794;23.302;2023-02-20T05:25:10;96146.16;;;5.58;70.96
70072;BME280;57434;42.794;23.302;2023-02-20T05:26:17;96143.06;;;5.56;70.53
70072;BME280;57434;42.794;23.302;2023-02-20T05:27:21;96122.34;;;5.31;70.42
70072;BME280;57434;42.794;23.302;2023-02-20T05:28:23;96136.16;;;5.35;70.42
70072;BME280;57434;42.794;23.302;2023-02-20T05:29:25;96153.19;;;5.50;70.65
70072;BME280;57434;42.794;23.302;2023-02-20T05:30:27;96168.41;;;5.58;70.86
70072;BME280;57434;42.794;23.302;2023-02-20T05:31:29;96089.00;;;5.06;70.91
70072;BME280;57434;42.794;23.302;2023-02-20T05:32:31;96173.09;;;5.61;70.91
70072;BME280;57434;42.794;23.302;2023-02-20T05:33:33;96096.13;;;5.07;71.30
70072;BME280;57434;42.794;23.302;2023-02-20T05:34:35;96161.09;;;5.38;71.58
70072;BME280;57434;42.794;23.302;2023-02-20T05:35:36;96171.00;;;5.52;71.64
70072;BME280;57434;42.794;23.302;2023-02-20T05:36:38;96175.69;;;5.55;71.59
70072;BME280;57434;42.794;23.302;2023-02-20T05:37:40;96171.44;;;5.51;71.37
70072;BME280;57434;42.794;23.302;2023-02-20T05:38:42;96175.78;;;5.52;71.54
70072;BME280;57434;42.794;23.302;2023-02-20T05:39:45;96178.75;;;5.57;71.33
70072;BME280;57434;42.794;23.302;2023-02-20T05:40:47;96175.88;;;5.61;71.22
70072;BME280;57434;42.794;23.302;2023-02-20T05:41:49;96169.88;;;5.37;71.11
70072;BME280;57434;42.794;23.302;2023-02-20T05:42:51;96132.16;;;5.36;70.95
70072;BME280;57434;42.794;23.302;2023-02-20T05:43:53;96136.50;;;5.37;70.88
70072;BME280;57434;42.794;23.302;2023-02-20T05:44:54;96166.06;;;5.69;70.53
70072;BME280;57434;42.794;23.302;2023-02-20T05:45:56;96190.56;;;5.74;70.84
70072;BME280;57434;42.794;23.302;2023-02-20T05:46:58;96190.63;;;5.96;70.64
70072;BME280;57434;42.794;23.302;2023-02-20T05:48:00;96052.75;;;5.57;68.75
70072;BME280;57434;42.794;23.302;2023-02-20T05:49:02;96082.81;;;6.18;67.61
70072;BME280;57434;42.794;23.302;2023-02-20T05:50:05;96189.78;;;6.55;67.96
70072;BME280;57434;42.794;23.302;2023-02-20T05:51:07;96202.19;;;6.41;69.20
70072;BME280;57434;42.794;23.302;2023-02-20T05:52:11;96209.28;;;6.21;69.57
70072;BME280;57434;42.794;23.302;2023-02-20T05:53:13;96152.09;;;5.94;69.92
70072;BME280;57434;42.794;23.302;2023-02-20T05:54:19;96195.41;;;6.08;70.21
70072;BME280;57434;42.794;23.302;2023-02-20T05:55:21;96159.44;;;6.01;69.83
70072;BME280;57434;42.794;23.302;2023-02-20T05:56:23;96171.50;;;6.20;70.74
70072;BME280;57434;42.794;23.302;2023-02-20T05:57:25;96181.97;;;6.28;70.11
70072;BME280;57434;42.794;23.302;2023-02-20T05:58:27;96202.47;;;6.56;70.43
70072;BME280;57434;42.794;23.302;2023-02-20T05:59:29;96138.53;;;6.18;68.57
70072;BME280;57434;42.794;23.302;2023-02-20T06:00:31;96182.44;;;6.70;68.81
70072;BME280;57434;42.794;23.302;2023-02-20T06:01:33;96193.59;;;6.70;68.27
70072;BME280;57434;42.794;23.302;2023-02-20T06:02:35;96125.81;;;6.17;68.07
70072;BME280;57434;42.794;23.302;2023-02-20T06:03:37;96160.66;;;6.34;67.85
70072;BME280;57434;42.794;23.302;2023-02-20T06:04:38;96191.13;;;6.51;67.86
70072;BME280;57434;42.794;23.302;2023-02-20T06:05:41;96211.94;;;6.59;68.04
70072;BME280;57434;42.794;23.302;2023-02-20T06:06:43;96211.09;;;6.71;68.00
70072;BME280;57434;42.794;23.302;2023-02-20T06:07:46;96186.09;;;6.58;67.76